Maoming, China
Current Conditions -  °F | °C
As of 8:00 PM on Thursday 23 Oct 2014 (Local Time) from ZJHK Reporting Station
Broken Clouds Broken Clouds  
Wind Chill: 75°   Ceiling: 3000
Heat Index: 75°   Visibility: 4mi
Dew Point: 73°   Wind: 7mph
Humidity: 94%   Direction: 100°E
Pressure: 29.94"   Gusts: NA
Location:  21.92°N, 110.87°E
Report Text: ZJHK 231200Z 10003MPS 7000 BKN030 24/23 Q1014 NOSIG
Loading
Personal Weather Stations






























Interactive Weather Map
Tropical Storm Tracking
New forecast layout! Learn more

10-Day Weather Forecast

Advertisements
Track Severe Weather on mobile